日期 资源名称
2022-12-06 the.pirates.2014.bluray.1080p.x265-minihd[btbtt]4.2GB
2022-12-06 the.divine.move.2014.bluray.1080p.x265-minihd[btbtt]2.15GB
2022-12-06 zombie.house.flipping.s05e01.720p.web.h264-bae807.19MB
2022-12-06 Walker.Independence.S01E07.WEBRip.x264-ION10409.77MB
2022-12-06 damons.revenge.2022.web-dl.1080p.x2642.07GB
2022-12-06 spiderhead.2022.1080p.nf.web-dl.ddp5.1.atmos.hdr.h265-momoweb[btb2.54GB
2022-12-06 the.last.house.on.the.left.2009.unrated.bluray.1080p.x265.10bit-m6.78GB
2022-12-06 love.and.gelato.2022.1080p.nf.web-dl.ddp5.1.hdr.h265-momoweb[btbt4.68GB
2022-12-06 the.killer.2022.bluray.1080p.dts-hd.ma5.1.x265.10bit-alt[btbtt]7.79GB
2022-12-06 the.legend.of.tarzan.2016.bluray.1080p.x265.10bit-minihd[btbtt]5.13GB
2022-12-06 Crime.Scene.The.Texas.Killing.Fields.S01.WEBRip.x265-ION265999.93MB
2022-12-06 the.imitation.game.2014.bluray.1080p.x265-minihd[btbtt]2.71GB
2022-12-06 terror.in.the.woods.2018.proper.1080p.webrip.x264-rarbg1.66GB
2022-12-06 ted.2.2015.bluray.1080p.x265.10bit-minihd[btbtt]3.46GB
2022-12-06 primo.2007.1080p.webrip.x264-rarbg1.61GB
2022-12-06 temptation.island.s04.1080p.pcok.webrip.ddp5.1.x264-whitehat30.06GB
2022-12-06 trivisa.2016.bluray.1080p.x265.10bit.2audio-minihd[btbtt]5.52GB
2022-12-06 hello.goodbye.and.everything.in.between.2022.1080p.nf.web-dl.ddp51.19GB
2022-12-06 the.life.and.death.of.an.unhappily.married.man.2015.1080p.amzn.we5.49GB
2022-12-06 No.Better.Love.2022.720p.WEB.h264-PFa1.61GB
2022-12-06 Inside.the.Tower.of.London.S03.1080p.HDTV.H264-DARKFLiX[rartv]5.14 GB
2022-12-06 wandering.2022.1080p.bluray.x265.10bit-ctrlhd[btbtt]6GB
2022-12-06 Sachertorte.2022.GERMAN.WEBRip.x264-VXT1.07GB
2022-12-06 Monstrous.S01.KOREAN.WEBRip.x264-KOREA2.03GB
2022-12-06 the.french.dispatch.2021.bluray.1080p.x265.10bit.ddp5.1-minihd[bt6.93GB
2022-12-06 the.sugarland.express.1974.bluray.1080p.x265.10bit-minihd[btbtt]4.45GB
2022-12-06 the.swimmers.2014.bluray.1080p.x265.2audio-minihd[btbtt]1.85GB
2022-12-06 37-teen.2019.proper.1080p.webrip.x264-rarbg1.76GB
2022-12-06 wild.is.the.wind.2022.1080p.nf.web-dl.ddp5.1.x264-momoweb[btbtt]5.03GB
2022-12-06 blues.in.the.night.1941.1080p.amzn.webrip.dd2.0.x264-sbr7.88GB